sensor_id;sensor_type;location;lat;lon;timestamp;P1;durP1;ratioP1;P2;durP2;ratioP2
30127;SDS011;16942;53.196;6.592;2023-04-23T00:00:49;47.40;;;25.27;;
30127;SDS011;16942;53.196;6.592;2023-04-23T00:03:16;48.20;;;25.63;;
30127;SDS011;16942;53.196;6.592;2023-04-23T00:05:43;48.23;;;26.63;;
30127;SDS011;16942;53.196;6.592;2023-04-23T00:08:10;53.40;;;26.60;;
30127;SDS011;16942;53.196;6.592;2023-04-23T00:10:36;47.73;;;25.83;;
30127;SDS011;16942;53.196;6.592;2023-04-23T00:13:02;55.03;;;27.40;;
30127;SDS011;16942;53.196;6.592;2023-04-23T00:15:29;49.73;;;25.77;;
30127;SDS011;16942;53.196;6.592;2023-04-23T00:17:55;52.20;;;27.03;;
30127;SDS011;16942;53.196;6.592;2023-04-23T00:20:21;46.73;;;25.87;;
30127;SDS011;16942;53.196;6.592;2023-04-23T00:22:47;48.90;;;26.40;;
30127;SDS011;16942;53.196;6.592;2023-04-23T00:25:13;46.87;;;26.07;;
30127;SDS011;16942;53.196;6.592;2023-04-23T00:27:39;47.73;;;25.00;;
30127;SDS011;16942;53.196;6.592;2023-04-23T00:30:05;44.93;;;24.97;;
30127;SDS011;16942;53.196;6.592;2023-04-23T00:32:32;41.53;;;22.23;;
30127;SDS011;16942;53.196;6.592;2023-04-23T00:34:58;47.10;;;24.40;;
30127;SDS011;16942;53.196;6.592;2023-04-23T00:37:25;44.90;;;24.30;;
30127;SDS011;16942;53.196;6.592;2023-04-23T00:39:51;44.87;;;23.27;;
30127;SDS011;16942;53.196;6.592;2023-04-23T00:42:17;43.10;;;22.97;;
30127;SDS011;16942;53.196;6.592;2023-04-23T00:44:43;48.40;;;25.07;;
30127;SDS011;16942;53.196;6.592;2023-04-23T00:47:09;47.43;;;23.87;;
30127;SDS011;16942;53.196;6.592;2023-04-23T00:49:36;42.37;;;24.00;;
30127;SDS011;16942;53.196;6.592;2023-04-23T00:52:03;44.60;;;23.63;;
30127;SDS011;16942;53.196;6.592;2023-04-23T00:54:29;45.73;;;23.13;;
30127;SDS011;16942;53.196;6.592;2023-04-23T00:56:55;48.80;;;24.23;;
30127;SDS011;16942;53.196;6.592;2023-04-23T00:59:23;51.17;;;25.67;;
30127;SDS011;16942;53.196;6.592;2023-04-23T01:01:50;45.33;;;24.43;;
30127;SDS011;16942;53.196;6.592;2023-04-23T01:04:16;50.10;;;25.37;;
30127;SDS011;16942;53.196;6.592;2023-04-23T01:06:43;49.00;;;24.63;;
30127;SDS011;16942;53.196;6.592;2023-04-23T01:09:11;49.40;;;25.20;;
30127;SDS011;16942;53.196;6.592;2023-04-23T01:11:38;50.07;;;25.73;;
30127;SDS011;16942;53.196;6.592;2023-04-23T01:14:04;49.80;;;24.50;;
30127;SDS011;16942;53.196;6.592;2023-04-23T01:16:31;49.27;;;24.77;;
30127;SDS011;16942;53.196;6.592;2023-04-23T01:18:57;51.37;;;25.77;;
30127;SDS011;16942;53.196;6.592;2023-04-23T01:21:24;46.80;;;24.27;;
30127;SDS011;16942;53.196;6.592;2023-04-23T01:23:50;47.23;;;23.53;;
30127;SDS011;16942;53.196;6.592;2023-04-23T01:26:16;48.63;;;24.63;;
30127;SDS011;16942;53.196;6.592;2023-04-23T01:28:43;44.57;;;23.80;;
30127;SDS011;16942;53.196;6.592;2023-04-23T01:31:10;44.40;;;24.17;;
30127;SDS011;16942;53.196;6.592;2023-04-23T01:33:38;47.87;;;24.30;;
30127;SDS011;16942;53.196;6.592;2023-04-23T01:36:04;51.83;;;25.60;;
30127;SDS011;16942;53.196;6.592;2023-04-23T01:38:30;47.30;;;23.27;;
30127;SDS011;16942;53.196;6.592;2023-04-23T01:40:57;46.07;;;25.13;;
30127;SDS011;16942;53.196;6.592;2023-04-23T01:43:24;49.27;;;25.13;;
30127;SDS011;16942;53.196;6.592;2023-04-23T01:45:50;47.07;;;25.10;;
30127;SDS011;16942;53.196;6.592;2023-04-23T01:48:17;49.70;;;24.33;;
30127;SDS011;16942;53.196;6.592;2023-04-23T01:50:43;46.07;;;24.70;;
30127;SDS011;16942;53.196;6.592;2023-04-23T01:53:09;45.80;;;25.30;;
30127;SDS011;16942;53.196;6.592;2023-04-23T01:55:38;47.50;;;23.93;;
30127;SDS011;16942;53.196;6.592;2023-04-23T01:58:05;51.30;;;25.67;;
30127;SDS011;16942;53.196;6.592;2023-04-23T02:00:31;52.73;;;26.20;;
30127;SDS011;16942;53.196;6.592;2023-04-23T02:02:57;53.03;;;25.50;;
30127;SDS011;16942;53.196;6.592;2023-04-23T02:05:23;51.17;;;26.80;;
30127;SDS011;16942;53.196;6.592;2023-04-23T02:07:50;52.00;;;27.90;;
30127;SDS011;16942;53.196;6.592;2023-04-23T02:10:16;61.17;;;30.50;;
30127;SDS011;16942;53.196;6.592;2023-04-23T02:12:43;65.30;;;30.90;;
30127;SDS011;16942;53.196;6.592;2023-04-23T02:15:09;59.03;;;30.70;;
30127;SDS011;16942;53.196;6.592;2023-04-23T02:17:36;59.03;;;29.50;;
30127;SDS011;16942;53.196;6.592;2023-04-23T02:20:04;56.60;;;29.03;;
30127;SDS011;16942;53.196;6.592;2023-04-23T02:22:30;60.23;;;30.20;;
30127;SDS011;16942;53.196;6.592;2023-04-23T02:24:56;59.60;;;29.57;;
30127;SDS011;16942;53.196;6.592;2023-04-23T02:27:23;59.93;;;28.63;;
30127;SDS011;16942;53.196;6.592;2023-04-23T02:29:49;58.57;;;29.20;;
30127;SDS011;16942;53.196;6.592;2023-04-23T02:32:15;65.43;;;31.40;;
30127;SDS011;16942;53.196;6.592;2023-04-23T02:34:41;65.73;;;30.47;;
30127;SDS011;16942;53.196;6.592;2023-04-23T02:37:07;65.53;;;30.43;;
30127;SDS011;16942;53.196;6.592;2023-04-23T02:39:34;65.10;;;32.30;;
30127;SDS011;16942;53.196;6.592;2023-04-23T02:42:00;67.80;;;31.67;;
30127;SDS011;16942;53.196;6.592;2023-04-23T02:44:26;64.17;;;32.07;;
30127;SDS011;16942;53.196;6.592;2023-04-23T02:46:52;75.37;;;33.63;;
30127;SDS011;16942;53.196;6.592;2023-04-23T02:49:18;65.13;;;31.27;;
30127;SDS011;16942;53.196;6.592;2023-04-23T02:51:46;67.60;;;32.33;;
30127;SDS011;16942;53.196;6.592;2023-04-23T02:54:13;70.67;;;32.73;;
30127;SDS011;16942;53.196;6.592;2023-04-23T02:56:39;72.20;;;32.87;;
30127;SDS011;16942;53.196;6.592;2023-04-23T02:59:05;69.00;;;33.97;;
30127;SDS011;16942;53.196;6.592;2023-04-23T03:01:32;65.83;;;31.70;;
30127;SDS011;16942;53.196;6.592;2023-04-23T03:03:58;72.53;;;33.20;;
30127;SDS011;16942;53.196;6.592;2023-04-23T03:06:25;72.67;;;33.63;;
30127;SDS011;16942;53.196;6.592;2023-04-23T03:08:51;69.97;;;33.83;;
30127;SDS011;16942;53.196;6.592;2023-04-23T03:11:17;71.47;;;33.80;;
30127;SDS011;16942;53.196;6.592;2023-04-23T03:13:43;79.43;;;35.20;;
30127;SDS011;16942;53.196;6.592;2023-04-23T03:16:09;85.57;;;36.00;;
30127;SDS011;16942;53.196;6.592;2023-04-23T03:18:35;84.60;;;36.80;;
30127;SDS011;16942;53.196;6.592;2023-04-23T03:21:01;95.73;;;39.83;;
30127;SDS011;16942;53.196;6.592;2023-04-23T03:23:28;96.67;;;40.40;;
30127;SDS011;16942;53.196;6.592;2023-04-23T03:25:54;94.77;;;39.77;;
30127;SDS011;16942;53.196;6.592;2023-04-23T03:28:20;91.37;;;40.27;;
30127;SDS011;16942;53.196;6.592;2023-04-23T03:30:46;91.67;;;39.77;;
30127;SDS011;16942;53.196;6.592;2023-04-23T03:33:12;100.63;;;40.90;;
30127;SDS011;16942;53.196;6.592;2023-04-23T03:35:38;89.87;;;38.03;;
30127;SDS011;16942;53.196;6.592;2023-04-23T03:38:04;98.07;;;40.37;;
30127;SDS011;16942;53.196;6.592;2023-04-23T03:40:30;92.00;;;38.97;;
30127;SDS011;16942;53.196;6.592;2023-04-23T03:42:56;92.10;;;39.27;;
30127;SDS011;16942;53.196;6.592;2023-04-23T03:45:23;100.10;;;41.37;;
30127;SDS011;16942;53.196;6.592;2023-04-23T03:47:50;96.57;;;39.80;;
30127;SDS011;16942;53.196;6.592;2023-04-23T03:50:16;97.03;;;41.53;;
30127;SDS011;16942;53.196;6.592;2023-04-23T03:52:42;102.37;;;43.40;;
30127;SDS011;16942;53.196;6.592;2023-04-23T03:55:08;110.30;;;45.13;;
30127;SDS011;16942;53.196;6.592;2023-04-23T03:57:34;104.27;;;42.47;;
30127;SDS011;16942;53.196;6.592;2023-04-23T04:00:01;99.10;;;42.20;;
30127;SDS011;16942;53.196;6.592;2023-04-23T04:02:27;99.43;;;42.63;;
30127;SDS011;16942;53.196;6.592;2023-04-23T04:04:53;97.27;;;42.53;;
30127;SDS011;16942;53.196;6.592;2023-04-23T04:07:20;116.43;;;45.77;;
30127;SDS011;16942;53.196;6.592;2023-04-23T04:09:46;100.87;;;42.23;;
30127;SDS011;16942;53.196;6.592;2023-04-23T04:12:13;99.70;;;45.00;;
30127;SDS011;16942;53.196;6.592;2023-04-23T04:14:41;105.07;;;45.83;;
30127;SDS011;16942;53.196;6.592;2023-04-23T04:17:07;94.70;;;42.00;;
30127;SDS011;16942;53.196;6.592;2023-04-23T04:19:33;105.57;;;44.47;;
30127;SDS011;16942;53.196;6.592;2023-04-23T04:21:59;108.80;;;46.27;;
30127;SDS011;16942;53.196;6.592;2023-04-23T04:24:27;100.67;;;42.40;;
30127;SDS011;16942;53.196;6.592;2023-04-23T04:26:56;105.83;;;44.30;;
30127;SDS011;16942;53.196;6.592;2023-04-23T04:29:22;101.57;;;43.00;;
30127;SDS011;16942;53.196;6.592;2023-04-23T04:31:48;102.67;;;43.27;;
30127;SDS011;16942;53.196;6.592;2023-04-23T04:34:14;106.23;;;44.83;;
30127;SDS011;16942;53.196;6.592;2023-04-23T04:36:42;109.53;;;43.93;;
30127;SDS011;16942;53.196;6.592;2023-04-23T04:39:08;103.07;;;44.70;;
30127;SDS011;16942;53.196;6.592;2023-04-23T04:41:35;99.20;;;42.23;;
30127;SDS011;16942;53.196;6.592;2023-04-23T04:44:01;109.63;;;44.40;;
30127;SDS011;16942;53.196;6.592;2023-04-23T04:46:27;98.67;;;42.33;;
30127;SDS011;16942;53.196;6.592;2023-04-23T04:48:53;92.50;;;41.80;;
30127;SDS011;16942;53.196;6.592;2023-04-23T04:51:20;97.43;;;41.67;;
30127;SDS011;16942;53.196;6.592;2023-04-23T04:53:46;97.80;;;41.97;;
30127;SDS011;16942;53.196;6.592;2023-04-23T04:56:12;96.17;;;42.77;;
30127;SDS011;16942;53.196;6.592;2023-04-23T04:58:38;92.57;;;40.97;;
30127;SDS011;16942;53.196;6.592;2023-04-23T05:01:04;98.77;;;42.40;;
30127;SDS011;16942;53.196;6.592;2023-04-23T05:03:30;96.87;;;44.27;;
30127;SDS011;16942;53.196;6.592;2023-04-23T05:05:57;98.67;;;43.70;;
30127;SDS011;16942;53.196;6.592;2023-04-23T05:08:23;91.70;;;43.13;;
30127;SDS011;16942;53.196;6.592;2023-04-23T05:10:49;96.43;;;41.27;;
30127;SDS011;16942;53.196;6.592;2023-04-23T05:13:16;96.40;;;43.43;;
30127;SDS011;16942;53.196;6.592;2023-04-23T05:15:42;95.93;;;42.77;;
30127;SDS011;16942;53.196;6.592;2023-04-23T05:18:08;109.50;;;42.03;;
30127;SDS011;16942;53.196;6.592;2023-04-23T05:20:35;97.10;;;41.40;;
30127;SDS011;16942;53.196;6.592;2023-04-23T05:23:01;99.60;;;40.50;;
30127;SDS011;16942;53.196;6.592;2023-04-23T05:25:30;91.27;;;39.63;;
30127;SDS011;16942;53.196;6.592;2023-04-23T05:27:56;85.33;;;39.57;;
30127;SDS011;16942;53.196;6.592;2023-04-23T05:30:22;88.67;;;41.17;;
30127;SDS011;16942;53.196;6.592;2023-04-23T05:32:48;76.60;;;35.17;;
30127;SDS011;16942;53.196;6.592;2023-04-23T05:35:14;80.90;;;38.03;;
30127;SDS011;16942;53.196;6.592;2023-04-23T05:37:41;84.57;;;39.43;;
30127;SDS011;16942;53.196;6.592;2023-04-23T05:40:07;82.20;;;38.77;;
30127;SDS011;16942;53.196;6.592;2023-04-23T05:42:34;79.87;;;38.23;;
30127;SDS011;16942;53.196;6.592;2023-04-23T05:45:00;79.03;;;36.37;;
30127;SDS011;16942;53.196;6.592;2023-04-23T05:47:27;82.80;;;39.13;;
30127;SDS011;16942;53.196;6.592;2023-04-23T05:49:53;91.57;;;40.67;;
30127;SDS011;16942;53.196;6.592;2023-04-23T05:52:21;85.37;;;38.73;;
30127;SDS011;16942;53.196;6.592;2023-04-23T05:54:47;94.43;;;41.37;;
30127;SDS011;16942;53.196;6.592;2023-04-23T05:57:13;87.80;;;40.13;;
30127;SDS011;16942;53.196;6.592;2023-04-23T05:59:39;88.70;;;41.00;;
30127;SDS011;16942;53.196;6.592;2023-04-23T06:02:06;90.97;;;40.97;;
30127;SDS011;16942;53.196;6.592;2023-04-23T06:04:32;95.77;;;42.40;;
30127;SDS011;16942;53.196;6.592;2023-04-23T06:06:58;99.80;;;42.23;;
30127;SDS011;16942;53.196;6.592;2023-04-23T06:09:24;94.17;;;42.60;;
30127;SDS011;16942;53.196;6.592;2023-04-23T06:11:51;99.57;;;44.67;;
30127;SDS011;16942;53.196;6.592;2023-04-23T06:14:17;102.27;;;44.73;;
30127;SDS011;16942;53.196;6.592;2023-04-23T06:16:43;94.00;;;43.90;;
30127;SDS011;16942;53.196;6.592;2023-04-23T06:19:09;106.83;;;47.23;;
30127;SDS011;16942;53.196;6.592;2023-04-23T06:21:35;102.27;;;45.83;;
30127;SDS011;16942;53.196;6.592;2023-04-23T06:24:01;106.70;;;46.37;;
30127;SDS011;16942;53.196;6.592;2023-04-23T06:26:27;102.30;;;45.07;;
30127;SDS011;16942;53.196;6.592;2023-04-23T06:28:53;105.30;;;45.93;;
30127;SDS011;16942;53.196;6.592;2023-04-23T06:31:20;102.80;;;45.60;;
30127;SDS011;16942;53.196;6.592;2023-04-23T06:33:46;107.37;;;47.60;;
30127;SDS011;16942;53.196;6.592;2023-04-23T06:36:12;115.13;;;48.80;;
30127;SDS011;16942;53.196;6.592;2023-04-23T06:38:38;110.27;;;47.20;;
30127;SDS011;16942;53.196;6.592;2023-04-23T06:41:05;94.70;;;45.10;;
30127;SDS011;16942;53.196;6.592;2023-04-23T06:43:31;107.07;;;47.17;;
30127;SDS011;16942;53.196;6.592;2023-04-23T06:45:57;89.20;;;44.00;;
30127;SDS011;16942;53.196;6.592;2023-04-23T06:48:23;96.37;;;43.47;;
30127;SDS011;16942;53.196;6.592;2023-04-23T06:50:50;94.97;;;43.53;;
30127;SDS011;16942;53.196;6.592;2023-04-23T06:53:16;78.63;;;38.90;;
30127;SDS011;16942;53.196;6.592;2023-04-23T06:55:42;77.47;;;37.27;;
30127;SDS011;16942;53.196;6.592;2023-04-23T06:58:08;79.73;;;38.10;;
30127;SDS011;16942;53.196;6.592;2023-04-23T07:00:35;77.47;;;38.60;;
30127;SDS011;16942;53.196;6.592;2023-04-23T07:03:01;80.23;;;38.83;;
30127;SDS011;16942;53.196;6.592;2023-04-23T07:05:27;75.60;;;37.13;;
30127;SDS011;16942;53.196;6.592;2023-04-23T07:07:53;81.87;;;39.17;;
30127;SDS011;16942;53.196;6.592;2023-04-23T07:10:20;76.30;;;38.93;;
30127;SDS011;16942;53.196;6.592;2023-04-23T07:12:46;80.60;;;38.20;;
30127;SDS011;16942;53.196;6.592;2023-04-23T07:15:12;76.33;;;37.07;;
30127;SDS011;16942;53.196;6.592;2023-04-23T07:17:38;76.63;;;36.63;;
30127;SDS011;16942;53.196;6.592;2023-04-23T07:20:05;76.97;;;36.43;;
30127;SDS011;16942;53.196;6.592;2023-04-23T07:22:32;74.83;;;36.60;;
30127;SDS011;16942;53.196;6.592;2023-04-23T07:24:58;74.87;;;35.93;;
30127;SDS011;16942;53.196;6.592;2023-04-23T07:27:24;74.87;;;36.60;;
30127;SDS011;16942;53.196;6.592;2023-04-23T07:29:50;71.50;;;34.77;;
30127;SDS011;16942;53.196;6.592;2023-04-23T07:32:17;67.80;;;36.63;;
30127;SDS011;16942;53.196;6.592;2023-04-23T07:34:43;74.07;;;35.73;;
30127;SDS011;16942;53.196;6.592;2023-04-23T07:37:09;63.50;;;33.93;;
30127;SDS011;16942;53.196;6.592;2023-04-23T07:39:35;56.43;;;32.13;;
30127;SDS011;16942;53.196;6.592;2023-04-23T07:42:01;65.20;;;32.60;;
30127;SDS011;16942;53.196;6.592;2023-04-23T07:44:27;56.17;;;31.57;;
30127;SDS011;16942;53.196;6.592;2023-04-23T07:46:53;58.20;;;31.70;;
30127;SDS011;16942;53.196;6.592;2023-04-23T07:49:19;61.03;;;32.67;;
30127;SDS011;16942;53.196;6.592;2023-04-23T07:51:45;56.57;;;30.47;;
30127;SDS011;16942;53.196;6.592;2023-04-23T07:54:12;53.20;;;29.77;;
30127;SDS011;16942;53.196;6.592;2023-04-23T07:56:38;54.03;;;29.50;;
30127;SDS011;16942;53.196;6.592;2023-04-23T07:59:04;54.13;;;29.83;;
30127;SDS011;16942;53.196;6.592;2023-04-23T08:01:31;60.47;;;31.67;;
30127;SDS011;16942;53.196;6.592;2023-04-23T08:03:58;50.40;;;27.93;;
30127;SDS011;16942;53.196;6.592;2023-04-23T08:06:24;54.93;;;30.43;;
30127;SDS011;16942;53.196;6.592;2023-04-23T08:08:51;49.73;;;28.20;;
30127;SDS011;16942;53.196;6.592;2023-04-23T08:11:17;53.03;;;30.53;;
30127;SDS011;16942;53.196;6.592;2023-04-23T08:13:44;58.03;;;30.50;;
30127;SDS011;16942;53.196;6.592;2023-04-23T08:16:09;51.50;;;28.50;;
30127;SDS011;16942;53.196;6.592;2023-04-23T08:18:35;51.40;;;27.47;;
30127;SDS011;16942;53.196;6.592;2023-04-23T08:21:02;52.10;;;28.20;;
30127;SDS011;16942;53.196;6.592;2023-04-23T08:23:28;47.73;;;27.60;;
30127;SDS011;16942;53.196;6.592;2023-04-23T08:25:54;46.97;;;27.10;;
30127;SDS011;16942;53.196;6.592;2023-04-23T08:28:20;49.97;;;27.97;;
30127;SDS011;16942;53.196;6.592;2023-04-23T08:30:46;44.47;;;25.77;;
30127;SDS011;16942;53.196;6.592;2023-04-23T08:33:12;45.63;;;26.30;;
30127;SDS011;16942;53.196;6.592;2023-04-23T08:35:38;47.73;;;27.63;;
30127;SDS011;16942;53.196;6.592;2023-04-23T08:38:05;51.53;;;25.80;;
30127;SDS011;16942;53.196;6.592;2023-04-23T08:40:31;45.60;;;25.23;;
30127;SDS011;16942;53.196;6.592;2023-04-23T08:43:01;45.20;;;24.33;;
30127;SDS011;16942;53.196;6.592;2023-04-23T08:45:28;47.83;;;24.90;;
30127;SDS011;16942;53.196;6.592;2023-04-23T08:47:58;46.67;;;26.53;;
30127;SDS011;16942;53.196;6.592;2023-04-23T08:50:25;45.47;;;25.53;;
30127;SDS011;16942;53.196;6.592;2023-04-23T08:52:52;41.27;;;23.33;;
30127;SDS011;16942;53.196;6.592;2023-04-23T08:55:18;35.80;;;21.07;;
30127;SDS011;16942;53.196;6.592;2023-04-23T08:57:45;33.73;;;19.83;;
30127;SDS011;16942;53.196;6.592;2023-04-23T09:00:12;40.10;;;21.50;;
30127;SDS011;16942;53.196;6.592;2023-04-23T09:02:39;37.17;;;21.27;;
30127;SDS011;16942;53.196;6.592;2023-04-23T09:05:05;43.83;;;22.97;;
30127;SDS011;16942;53.196;6.592;2023-04-23T09:07:32;40.37;;;22.33;;
30127;SDS011;16942;53.196;6.592;2023-04-23T09:09:59;42.43;;;22.97;;
30127;SDS011;16942;53.196;6.592;2023-04-23T09:12:25;36.80;;;21.77;;
30127;SDS011;16942;53.196;6.592;2023-04-23T09:14:51;35.57;;;21.40;;
30127;SDS011;16942;53.196;6.592;2023-04-23T09:17:18;36.30;;;20.70;;
30127;SDS011;16942;53.196;6.592;2023-04-23T09:19:44;32.30;;;19.20;;
30127;SDS011;16942;53.196;6.592;2023-04-23T09:22:11;32.80;;;18.83;;
30127;SDS011;16942;53.196;6.592;2023-04-23T09:24:40;29.07;;;17.67;;
30127;SDS011;16942;53.196;6.592;2023-04-23T09:27:07;28.07;;;16.30;;
30127;SDS011;16942;53.196;6.592;2023-04-23T09:29:33;28.20;;;17.00;;
30127;SDS011;16942;53.196;6.592;2023-04-23T09:32:07;26.63;;;16.83;;
30127;SDS011;16942;53.196;6.592;2023-04-23T09:34:37;25.30;;;15.73;;
30127;SDS011;16942;53.196;6.592;2023-04-23T09:37:03;30.73;;;15.43;;
30127;SDS011;16942;53.196;6.592;2023-04-23T09:39:31;24.80;;;14.23;;
30127;SDS011;16942;53.196;6.592;2023-04-23T09:42:01;25.17;;;15.10;;
30127;SDS011;16942;53.196;6.592;2023-04-23T09:44:29;24.77;;;15.23;;
30127;SDS011;16942;53.196;6.592;2023-04-23T09:46:55;27.03;;;13.47;;
30127;SDS011;16942;53.196;6.592;2023-04-23T09:49:21;22.30;;;12.97;;
30127;SDS011;16942;53.196;6.592;2023-04-23T09:51:48;21.77;;;12.23;;
30127;SDS011;16942;53.196;6.592;2023-04-23T09:54:19;24.63;;;12.00;;
30127;SDS011;16942;53.196;6.592;2023-04-23T09:56:50;15.80;;;9.67;;
30127;SDS011;16942;53.196;6.592;2023-04-23T09:59:21;16.23;;;10.23;;
30127;SDS011;16942;53.196;6.592;2023-04-23T10:01:47;15.63;;;9.53;;
30127;SDS011;16942;53.196;6.592;2023-04-23T10:04:17;16.03;;;9.53;;
30127;SDS011;16942;53.196;6.592;2023-04-23T10:06:45;17.93;;;10.53;;
30127;SDS011;16942;53.196;6.592;2023-04-23T10:09:11;15.27;;;9.83;;
30127;SDS011;16942;53.196;6.592;2023-04-23T10:11:37;14.70;;;9.77;;
30127;SDS011;16942;53.196;6.592;2023-04-23T10:14:03;17.00;;;9.80;;
30127;SDS011;16942;53.196;6.592;2023-04-23T10:16:29;20.43;;;8.27;;
30127;SDS011;16942;53.196;6.592;2023-04-23T10:18:56;13.67;;;7.77;;
30127;SDS011;16942;53.196;6.592;2023-04-23T10:21:25;15.77;;;8.57;;
30127;SDS011;16942;53.196;6.592;2023-04-23T10:23:52;15.03;;;7.43;;
30127;SDS011;16942;53.196;6.592;2023-04-23T10:26:19;14.23;;;7.33;;
30127;SDS011;16942;53.196;6.592;2023-04-23T10:28:48;15.93;;;7.80;;
30127;SDS011;16942;53.196;6.592;2023-04-23T10:31:15;16.00;;;7.60;;
30127;SDS011;16942;53.196;6.592;2023-04-23T10:33:42;12.33;;;7.63;;
30127;SDS011;16942;53.196;6.592;2023-04-23T10:36:08;14.47;;;6.57;;
30127;SDS011;16942;53.196;6.592;2023-04-23T10:38:34;13.90;;;6.80;;
30127;SDS011;16942;53.196;6.592;2023-04-23T10:41:01;14.53;;;6.63;;
30127;SDS011;16942;53.196;6.592;2023-04-23T10:43:27;8.10;;;4.80;;
30127;SDS011;16942;53.196;6.592;2023-04-23T10:45:53;10.93;;;5.37;;
30127;SDS011;16942;53.196;6.592;2023-04-23T10:48:19;11.03;;;4.97;;
30127;SDS011;16942;53.196;6.592;2023-04-23T10:50:45;9.10;;;4.33;;
30127;SDS011;16942;53.196;6.592;2023-04-23T10:53:18;10.57;;;4.50;;
30127;SDS011;16942;53.196;6.592;2023-04-23T10:55:45;9.33;;;4.03;;
30127;SDS011;16942;53.196;6.592;2023-04-23T10:58:11;7.47;;;3.63;;
30127;SDS011;16942;53.196;6.592;2023-04-23T11:06:08;11.13;;;4.33;;
30127;SDS011;16942;53.196;6.592;2023-04-23T11:08:37;9.67;;;4.47;;
30127;SDS011;16942;53.196;6.592;2023-04-23T11:11:06;13.57;;;4.40;;
30127;SDS011;16942;53.196;6.592;2023-04-23T11:13:33;9.20;;;4.83;;
30127;SDS011;16942;53.196;6.592;2023-04-23T11:19:07;11.80;;;4.40;;
30127;SDS011;16942;53.196;6.592;2023-04-23T11:21:55;8.93;;;3.63;;
30127;SDS011;16942;53.196;6.592;2023-04-23T11:24:26;10.73;;;3.93;;
30127;SDS011;16942;53.196;6.592;2023-04-23T11:26:53;6.57;;;4.00;;
30127;SDS011;16942;53.196;6.592;2023-04-23T11:29:23;8.20;;;3.23;;
30127;SDS011;16942;53.196;6.592;2023-04-23T11:31:49;10.80;;;3.53;;
30127;SDS011;16942;53.196;6.592;2023-04-23T11:34:16;7.47;;;3.73;;
30127;SDS011;16942;53.196;6.592;2023-04-23T11:36:42;9.20;;;3.63;;
30127;SDS011;16942;53.196;6.592;2023-04-23T11:39:08;10.93;;;3.83;;
30127;SDS011;16942;53.196;6.592;2023-04-23T11:41:37;7.23;;;3.03;;
30127;SDS011;16942;53.196;6.592;2023-04-23T11:44:03;5.87;;;3.07;;
30127;SDS011;16942;53.196;6.592;2023-04-23T11:46:30;7.53;;;3.00;;
30127;SDS011;16942;53.196;6.592;2023-04-23T11:48:58;7.77;;;3.43;;
30127;SDS011;16942;53.196;6.592;2023-04-23T11:51:25;5.97;;;3.60;;
30127;SDS011;16942;53.196;6.592;2023-04-23T11:53:51;8.90;;;3.70;;
30127;SDS011;16942;53.196;6.592;2023-04-23T11:56:17;10.47;;;3.60;;
30127;SDS011;16942;53.196;6.592;2023-04-23T11:58:56;7.63;;;3.70;;
30127;SDS011;16942;53.196;6.592;2023-04-23T12:01:23;5.80;;;2.70;;
30127;SDS011;16942;53.196;6.592;2023-04-23T12:03:49;6.13;;;3.07;;
30127;SDS011;16942;53.196;6.592;2023-04-23T12:06:16;6.50;;;2.80;;
30127;SDS011;16942;53.196;6.592;2023-04-23T12:08:42;5.37;;;2.77;;
30127;SDS011;16942;53.196;6.592;2023-04-23T12:11:11;4.17;;;2.40;;
30127;SDS011;16942;53.196;6.592;2023-04-23T12:13:38;9.57;;;2.90;;
30127;SDS011;16942;53.196;6.592;2023-04-23T12:16:06;3.47;;;2.37;;
30127;SDS011;16942;53.196;6.592;2023-04-23T12:18:33;6.83;;;2.37;;
30127;SDS011;16942;53.196;6.592;2023-04-23T12:21:05;7.03;;;2.63;;
30127;SDS011;16942;53.196;6.592;2023-04-23T12:23:31;7.07;;;2.67;;
30127;SDS011;16942;53.196;6.592;2023-04-23T12:25:59;3.37;;;1.77;;
30127;SDS011;16942;53.196;6.592;2023-04-23T12:28:27;4.00;;;1.83;;
30127;SDS011;16942;53.196;6.592;2023-04-23T12:30:57;4.17;;;1.90;;
30127;SDS011;16942;53.196;6.592;2023-04-23T12:33:24;5.57;;;1.87;;
30127;SDS011;16942;53.196;6.592;2023-04-23T12:35:53;5.13;;;2.20;;
30127;SDS011;16942;53.196;6.592;2023-04-23T12:40:48;4.30;;;1.90;;
30127;SDS011;16942;53.196;6.592;2023-04-23T12:43:15;6.53;;;2.17;;
30127;SDS011;16942;53.196;6.592;2023-04-23T12:45:41;5.60;;;2.13;;
30127;SDS011;16942;53.196;6.592;2023-04-23T12:48:07;6.83;;;1.70;;
30127;SDS011;16942;53.196;6.592;2023-04-23T12:50:33;6.93;;;2.00;;
30127;SDS011;16942;53.196;6.592;2023-04-23T12:52:59;5.40;;;1.80;;
30127;SDS011;16942;53.196;6.592;2023-04-23T12:55:25;3.57;;;1.80;;
30127;SDS011;16942;53.196;6.592;2023-04-23T12:57:51;6.65;;;1.63;;
30127;SDS011;16942;53.196;6.592;2023-04-23T13:00:17;5.05;;;1.75;;
30127;SDS011;16942;53.196;6.592;2023-04-23T13:02:43;4.57;;;1.92;;
30127;SDS011;16942;53.196;6.592;2023-04-23T13:05:09;5.80;;;1.52;;
30127;SDS011;16942;53.196;6.592;2023-04-23T13:07:35;4.82;;;1.60;;
30127;SDS011;16942;53.196;6.592;2023-04-23T13:10:02;5.15;;;1.45;;
30127;SDS011;16942;53.196;6.592;2023-04-23T13:12:28;6.32;;;1.42;;
30127;SDS011;16942;53.196;6.592;2023-04-23T13:14:54;7.43;;;1.52;;
30127;SDS011;16942;53.196;6.592;2023-04-23T13:17:20;3.97;;;1.20;;
30127;SDS011;16942;53.196;6.592;2023-04-23T13:19:49;7.63;;;1.63;;
30127;SDS011;16942;53.196;6.592;2023-04-23T13:22:15;4.63;;;1.50;;
30127;SDS011;16942;53.196;6.592;2023-04-23T13:24:41;5.97;;;1.88;;
30127;SDS011;16942;53.196;6.592;2023-04-23T13:27:07;4.05;;;1.85;;
30127;SDS011;16942;53.196;6.592;2023-04-23T13:29:33;6.13;;;2.10;;
30127;SDS011;16942;53.196;6.592;2023-04-23T13:31:59;3.20;;;1.45;;
30127;SDS011;16942;53.196;6.592;2023-04-23T13:34:25;3.75;;;1.75;;
30127;SDS011;16942;53.196;6.592;2023-04-23T13:36:51;4.75;;;1.38;;
30127;SDS011;16942;53.196;6.592;2023-04-23T13:39:17;7.22;;;1.63;;
30127;SDS011;16942;53.196;6.592;2023-04-23T13:41:44;7.63;;;2.55;;
30127;SDS011;16942;53.196;6.592;2023-04-23T13:44:10;2.90;;;1.27;;
30127;SDS011;16942;53.196;6.592;2023-04-23T13:46:38;9.77;;;2.13;;
30127;SDS011;16942;53.196;6.592;2023-04-23T13:49:04;5.80;;;1.88;;
30127;SDS011;16942;53.196;6.592;2023-04-23T13:51:30;13.07;;;2.58;;
30127;SDS011;16942;53.196;6.592;2023-04-23T13:53:56;4.97;;;1.77;;
30127;SDS011;16942;53.196;6.592;2023-04-23T13:56:23;4.00;;;1.60;;
30127;SDS011;16942;53.196;6.592;2023-04-23T13:58:49;7.88;;;3.13;;
30127;SDS011;16942;53.196;6.592;2023-04-23T14:01:17;8.18;;;2.40;;
30127;SDS011;16942;53.196;6.592;2023-04-23T14:03:43;5.47;;;1.90;;
30127;SDS011;16942;53.196;6.592;2023-04-23T14:06:09;5.88;;;2.05;;
30127;SDS011;16942;53.196;6.592;2023-04-23T14:08:35;7.53;;;1.70;;
30127;SDS011;16942;53.196;6.592;2023-04-23T14:11:02;6.25;;;1.90;;
30127;SDS011;16942;53.196;6.592;2023-04-23T14:13:31;6.75;;;1.77;;
30127;SDS011;16942;53.196;6.592;2023-04-23T14:15:57;7.35;;;1.83;;
30127;SDS011;16942;53.196;6.592;2023-04-23T14:18:24;6.50;;;1.90;;
30127;SDS011;16942;53.196;6.592;2023-04-23T14:20:50;6.85;;;1.88;;
30127;SDS011;16942;53.196;6.592;2023-04-23T14:25:52;9.85;;;2.85;;
30127;SDS011;16942;53.196;6.592;2023-04-23T14:30:47;6.20;;;1.85;;
30127;SDS011;16942;53.196;6.592;2023-04-23T14:33:13;5.47;;;2.08;;
30127;SDS011;16942;53.196;6.592;2023-04-23T14:35:40;8.30;;;2.00;;
30127;SDS011;16942;53.196;6.592;2023-04-23T14:38:06;6.68;;;1.95;;
30127;SDS011;16942;53.196;6.592;2023-04-23T14:40:32;7.13;;;1.58;;